createdAt,value
2018-10-11T00:01:41.080Z,24.20
2018-10-11T00:04:46.032Z,25.50
2018-10-11T00:07:50.984Z,23.33
2018-10-11T00:10:55.937Z,22.07
2018-10-11T00:14:00.918Z,23.47
2018-10-11T00:17:06.100Z,21.70
2018-10-11T00:20:11.090Z,23.00
2018-10-11T00:23:16.091Z,24.93
2018-10-11T00:26:21.911Z,20.57
2018-10-11T00:29:27.896Z,21.33
2018-10-11T00:32:32.917Z,24.70
2018-10-11T00:35:38.332Z,23.50
2018-10-11T00:38:43.369Z,25.53
2018-10-11T00:41:48.359Z,23.70
2018-10-11T00:44:54.170Z,20.60
2018-10-11T00:47:59.148Z,18.43
2018-10-11T00:51:04.308Z,20.97
2018-10-11T00:54:09.577Z,22.40
2018-10-11T00:57:14.541Z,20.20
2018-10-11T01:00:19.566Z,21.07
2018-10-11T01:03:24.592Z,21.60
2018-10-11T01:06:29.579Z,21.70
2018-10-11T01:09:34.573Z,19.83
2018-10-11T01:12:39.558Z,22.73
2018-10-11T01:15:44.522Z,21.73
2018-10-11T01:18:49.480Z,20.13
2018-10-11T01:21:54.438Z,20.80
2018-10-11T01:24:59.393Z,24.70
2018-10-11T01:28:04.391Z,26.10
2018-10-11T01:31:15.269Z,20.53
2018-10-11T01:34:20.275Z,22.13
2018-10-11T01:37:26.464Z,22.57
2018-10-11T01:40:31.544Z,20.67
2018-10-11T01:43:36.550Z,19.63
2018-10-11T01:46:41.537Z,18.90
2018-10-11T01:49:46.538Z,20.20
2018-10-11T01:52:51.534Z,20.23
2018-10-11T01:55:56.539Z,19.97
2018-10-11T01:59:01.534Z,22.07
2018-10-11T02:02:06.546Z,17.13
2018-10-11T02:05:11.529Z,18.60
2018-10-11T02:08:16.536Z,17.67
2018-10-11T02:11:21.510Z,19.60
2018-10-11T02:14:26.492Z,18.90
2018-10-11T02:17:32.261Z,20.43
2018-10-11T02:20:37.198Z,20.73
2018-10-11T02:23:42.898Z,20.50
2018-10-11T02:26:47.830Z,22.63
2018-10-11T02:29:52.771Z,18.70
2018-10-11T02:32:57.752Z,24.37
2018-10-11T02:36:02.714Z,22.73
2018-10-11T02:39:08.771Z,22.10
2018-10-11T02:42:13.734Z,22.13
2018-10-11T02:45:18.690Z,20.83
2018-10-11T02:48:23.653Z,26.43
2018-10-11T02:51:28.644Z,21.27
2018-10-11T02:54:33.630Z,23.23
2018-10-11T02:57:50.078Z,23.40
2018-10-11T03:00:55.141Z,22.03
2018-10-11T03:04:02.162Z,20.97
2018-10-11T03:07:08.425Z,21.60
2018-10-11T03:10:14.049Z,25.27
2018-10-11T03:13:19.033Z,22.83
2018-10-11T03:16:23.994Z,21.57
2018-10-11T03:19:28.945Z,22.20
2018-10-11T03:22:33.956Z,18.77
2018-10-11T03:25:40.585Z,21.70
2018-10-11T03:28:45.564Z,19.83
2018-10-11T03:31:50.507Z,25.67
2018-10-11T03:34:55.445Z,22.03
2018-10-11T03:38:00.469Z,21.67
2018-10-11T03:41:05.593Z,21.80
2018-10-11T03:44:10.554Z,18.63
2018-10-11T03:47:15.528Z,18.73
2018-10-11T03:50:20.775Z,22.47
2018-10-11T03:53:25.732Z,22.37
2018-10-11T03:56:30.706Z,23.10
2018-10-11T03:59:35.728Z,23.77
2018-10-11T04:02:40.725Z,23.30
2018-10-11T04:05:45.699Z,22.70
2018-10-11T04:08:50.662Z,21.63
2018-10-11T04:11:55.605Z,21.13
2018-10-11T04:15:00.545Z,24.93
2018-10-11T04:18:05.910Z,21.03
2018-10-11T04:21:12.948Z,18.20
2018-10-11T04:24:17.953Z,20.73
2018-10-11T04:27:22.929Z,21.73
2018-10-11T04:30:27.900Z,20.77
2018-10-11T04:33:32.853Z,22.30
2018-10-11T04:36:37.795Z,22.87
2018-10-11T04:39:42.740Z,24.13
2018-10-11T04:42:47.795Z,21.00
2018-10-11T04:45:52.663Z,19.80
2018-10-11T04:48:57.607Z,21.57
2018-10-11T04:52:02.576Z,22.97
2018-10-11T04:55:07.604Z,22.60
2018-10-11T04:58:12.555Z,26.97
2018-10-11T05:01:17.494Z,23.83
2018-10-11T05:04:22.437Z,20.33
2018-10-11T05:07:27.369Z,20.30
2018-10-11T05:10:32.553Z,23.10
2018-10-11T05:14:56.936Z,24.80
2018-10-11T05:18:02.751Z,26.20
2018-10-11T05:21:08.937Z,28.97
2018-10-11T05:24:13.890Z,29.03
2018-10-11T05:27:18.896Z,29.07
2018-10-11T05:30:23.993Z,37.37
2018-10-11T05:33:29.182Z,32.83
2018-10-11T05:36:34.230Z,31.07
2018-10-11T05:39:39.281Z,31.27
2018-10-11T05:42:44.323Z,29.17
2018-10-11T05:45:52.781Z,30.47
2018-10-11T05:48:58.715Z,32.77
2018-10-11T05:52:03.729Z,25.83
2018-10-11T05:55:08.801Z,28.67
2018-10-11T05:58:13.814Z,30.47
2018-10-11T06:01:19.091Z,31.67
2018-10-11T06:04:24.128Z,30.93
2018-10-11T06:07:29.178Z,31.53
2018-10-11T06:10:35.854Z,26.10
2018-10-11T06:13:41.612Z,24.30
2018-10-11T06:16:46.603Z,29.30
2018-10-11T06:19:51.702Z,30.87
2018-10-11T06:22:56.730Z,33.30
2018-10-11T06:26:02.044Z,38.30
2018-10-11T06:29:07.749Z,35.10
2018-10-11T06:32:12.786Z,34.43
2018-10-11T06:35:17.829Z,30.40
2018-10-11T06:38:22.831Z,29.40
2018-10-11T06:41:27.845Z,28.10
2018-10-11T06:44:32.835Z,28.00
2018-10-11T06:47:37.822Z,30.07
2018-10-11T06:50:44.234Z,43.10
2018-10-11T06:53:49.823Z,30.50
2018-10-11T06:56:55.701Z,34.73
2018-10-11T07:00:01.774Z,31.47
2018-10-11T07:03:07.633Z,28.10
2018-10-11T07:06:13.593Z,30.03
2018-10-11T07:09:18.541Z,44.37
2018-10-11T07:12:23.489Z,44.93
2018-10-11T07:15:28.491Z,42.77
2018-10-11T07:18:33.453Z,41.23
2018-10-11T07:21:38.534Z,35.07
2018-10-11T07:24:43.509Z,33.03
2018-10-11T07:27:48.510Z,33.03
2018-10-11T07:30:53.478Z,37.73
2018-10-11T07:33:58.446Z,37.63
2018-10-11T07:37:03.425Z,33.20
2018-10-11T07:40:08.402Z,29.83
2018-10-11T07:43:13.351Z,26.90
2018-10-11T07:46:18.329Z,30.43
2018-10-11T07:49:23.283Z,29.93
2018-10-11T07:52:28.244Z,33.60
2018-10-11T07:55:33.221Z,33.63
2018-10-11T07:58:38.373Z,34.83
2018-10-11T08:01:43.394Z,37.83
2018-10-11T08:04:48.314Z,35.10
2018-10-11T08:07:53.285Z,34.60
2018-10-11T08:10:58.421Z,39.37
2018-10-11T08:14:03.296Z,32.93
2018-10-11T08:17:08.617Z,32.50
2018-10-11T08:20:13.316Z,31.77
2018-10-11T08:23:18.249Z,29.90
2018-10-11T08:26:23.511Z,35.17
2018-10-11T08:29:28.241Z,28.17
2018-10-11T08:32:33.426Z,31.70
2018-10-11T08:35:38.234Z,36.93
2018-10-11T08:38:43.308Z,31.77
2018-10-11T08:41:48.219Z,36.27
2018-10-11T08:44:53.173Z,38.73
2018-10-11T08:47:58.114Z,31.37
2018-10-11T08:51:03.160Z,31.23
2018-10-11T08:54:13.979Z,30.83
2018-10-11T08:57:20.146Z,28.33
2018-10-11T09:00:25.165Z,27.43
2018-10-11T09:03:30.151Z,27.50
2018-10-11T09:06:35.095Z,26.03
2018-10-11T09:09:41.545Z,25.30
2018-10-11T09:12:46.478Z,24.03
2018-10-11T09:15:51.457Z,23.40
2018-10-11T09:18:59.196Z,21.93
2018-10-11T09:22:10.618Z,21.83
2018-10-11T09:25:16.339Z,24.23
2018-10-11T09:28:24.271Z,22.77
2018-10-11T09:31:30.447Z,22.77
2018-10-11T09:34:36.571Z,23.07
2018-10-11T09:37:43.870Z,22.97
2018-10-11T09:40:50.198Z,21.17
2018-10-11T09:43:55.382Z,20.83
2018-10-11T09:47:00.522Z,19.37
2018-10-11T09:50:06.390Z,19.80
2018-10-11T09:53:15.622Z,21.20
2018-10-11T09:56:24.591Z,22.50
2018-10-11T09:59:32.049Z,23.00
2018-10-11T10:02:38.779Z,22.27
2018-10-11T10:05:44.902Z,18.80
2018-10-11T10:08:51.220Z,20.10
2018-10-11T10:11:56.397Z,21.57
2018-10-11T10:15:03.666Z,21.37
2018-10-11T10:18:11.025Z,20.93
2018-10-11T10:21:21.333Z,22.00
2018-10-11T10:24:27.106Z,21.80
2018-10-11T10:27:36.583Z,21.93
2018-10-11T10:30:54.958Z,22.27
2018-10-11T10:33:59.997Z,20.97
2018-10-11T10:37:06.401Z,20.93
2018-10-11T10:40:11.379Z,20.67
2018-10-11T10:43:16.356Z,21.90
2018-10-11T10:46:21.508Z,19.13
2018-10-11T10:49:26.492Z,22.63
2018-10-11T10:52:31.462Z,23.13
2018-10-11T10:55:36.438Z,24.53
2018-10-11T10:58:41.419Z,22.17
2018-10-11T11:01:46.481Z,22.37
2018-10-11T11:04:51.446Z,21.77
2018-10-11T11:07:56.446Z,22.47
2018-10-11T11:11:01.391Z,20.60
2018-10-11T11:14:06.580Z,20.87
2018-10-11T11:17:11.543Z,21.87
2018-10-11T11:20:16.534Z,22.70
2018-10-11T11:23:21.527Z,19.57
2018-10-11T11:26:26.558Z,21.17
2018-10-11T11:29:31.545Z,19.40
2018-10-11T11:32:36.563Z,20.93
2018-10-11T11:35:41.654Z,20.37
2018-10-11T11:38:46.604Z,18.10
2018-10-11T11:41:51.613Z,17.63
2018-10-11T11:44:56.703Z,17.10
2018-10-11T11:48:08.394Z,16.33
2018-10-11T11:51:15.515Z,17.93
2018-10-11T11:54:23.937Z,18.97
2018-10-11T11:57:31.934Z,16.03
2018-10-11T12:00:40.493Z,15.17
2018-10-11T12:03:48.369Z,14.80
2018-10-11T12:06:53.758Z,15.57
2018-10-11T12:09:59.582Z,16.43
2018-10-11T12:15:02.202Z,21.70
2018-10-11T12:18:09.782Z,29.60
2018-10-11T12:21:15.046Z,21.33
2018-10-11T12:24:24.585Z,14.90
2018-10-11T12:27:30.801Z,17.23
2018-10-11T12:30:37.190Z,18.63
2018-10-11T12:33:43.287Z,17.83
2018-10-11T12:36:50.505Z,15.87
2018-10-11T12:39:56.945Z,15.03
2018-10-11T12:43:07.870Z,14.60
2018-10-11T12:46:13.859Z,14.67
2018-10-11T12:49:19.040Z,16.70
2018-10-11T12:52:26.215Z,15.43
2018-10-11T12:55:32.626Z,22.10
2018-10-11T12:58:38.126Z,17.67
2018-10-11T13:01:43.404Z,19.23
2018-10-11T13:04:49.904Z,21.73
2018-10-11T13:08:00.035Z,24.63
2018-10-11T13:11:09.370Z,24.30
2018-10-11T13:14:16.138Z,26.07
2018-10-11T13:17:22.919Z,21.63
2018-10-11T13:20:30.714Z,27.93
2018-10-11T13:23:37.111Z,21.53
2018-10-11T13:26:47.276Z,20.50
2018-10-11T13:29:53.901Z,23.77
2018-10-11T13:33:02.535Z,19.70
2018-10-11T13:36:10.330Z,19.23
2018-10-11T13:39:19.339Z,18.80
2018-10-11T13:42:25.183Z,20.90
2018-10-11T13:45:32.429Z,19.17
2018-10-11T13:48:40.205Z,19.67
2018-10-11T13:51:49.252Z,20.10
2018-10-11T13:54:56.290Z,16.87
2018-10-11T13:58:02.205Z,18.27
2018-10-11T14:01:10.543Z,19.33
2018-10-11T14:04:19.616Z,17.87
2018-10-11T14:07:27.171Z,18.50
2018-10-11T14:10:35.185Z,18.87
2018-10-11T14:13:40.894Z,18.80
2018-10-11T14:16:46.846Z,21.83
2018-10-11T14:19:54.262Z,18.17
2018-10-11T14:23:03.939Z,19.37
2018-10-11T14:26:09.146Z,17.80
2018-10-11T14:32:27.203Z,24.50
2018-10-11T14:35:34.936Z,18.37
2018-10-11T14:38:40.822Z,21.10
2018-10-11T14:41:46.112Z,18.77
2018-10-11T14:44:51.185Z,18.67
2018-10-11T14:47:56.268Z,18.07
2018-10-11T14:51:02.532Z,18.10
2018-10-11T14:54:08.053Z,19.03
2018-10-11T14:57:13.117Z,18.77
2018-10-11T15:00:19.485Z,19.93
2018-10-11T15:03:25.136Z,16.90
2018-10-11T15:06:30.919Z,17.37
2018-10-11T15:09:35.930Z,18.03
2018-10-11T15:12:40.962Z,17.93
2018-10-11T15:15:46.252Z,18.27
2018-10-11T15:18:51.156Z,17.80
2018-10-11T15:21:56.695Z,18.83
2018-10-11T15:25:01.769Z,18.07
2018-10-11T15:28:06.792Z,17.40
2018-10-11T15:31:12.875Z,20.40
2018-10-11T15:34:18.553Z,19.57
2018-10-11T15:37:24.713Z,16.03
2018-10-11T15:40:29.811Z,16.67
2018-10-11T15:43:34.905Z,17.97
2018-10-11T15:46:40.531Z,17.30
2018-10-11T15:49:45.546Z,23.37
2018-10-11T15:52:51.276Z,19.10
2018-10-11T15:55:56.283Z,17.80
2018-10-11T15:59:01.461Z,18.53
2018-10-11T16:02:07.966Z,22.77
2018-10-11T16:05:13.427Z,17.60
2018-10-11T16:08:19.362Z,19.03
2018-10-11T16:11:24.374Z,20.07
2018-10-11T16:14:30.141Z,18.77
2018-10-11T16:17:36.004Z,19.20
2018-10-11T16:20:41.014Z,17.50
2018-10-11T16:23:50.509Z,16.40
2018-10-11T16:26:55.505Z,16.47
2018-10-11T16:30:00.457Z,15.83
2018-10-11T16:33:08.547Z,40.33
2018-10-11T16:36:15.717Z,23.70
2018-10-11T16:39:21.306Z,55.80
2018-10-11T16:42:27.131Z,29.50
2018-10-11T16:45:32.655Z,19.43
2018-10-11T16:48:38.567Z,17.00
2018-10-11T16:51:44.408Z,15.90
2018-10-11T16:54:50.076Z,16.60
2018-10-11T16:57:55.090Z,22.90
2018-10-11T17:01:01.803Z,16.13
2018-10-11T17:04:07.659Z,15.70
2018-10-11T17:07:12.657Z,15.00
2018-10-11T17:10:18.017Z,14.90
2018-10-11T17:13:23.327Z,15.40
2018-10-11T17:16:28.286Z,15.90
2018-10-11T17:19:34.475Z,15.77
2018-10-11T17:22:40.514Z,17.47
2018-10-11T17:25:46.162Z,19.87
2018-10-11T17:28:51.190Z,39.07
2018-10-11T17:31:56.242Z,44.43
2018-10-11T17:35:01.283Z,20.13
2018-10-11T17:38:06.553Z,20.50
2018-10-11T17:41:12.563Z,16.03
2018-10-11T17:44:18.560Z,16.07
2018-10-11T17:47:23.684Z,16.33
2018-10-11T17:50:28.721Z,19.47
2018-10-11T17:53:34.581Z,26.20
2018-10-11T17:56:39.600Z,29.27
2018-10-11T17:59:44.804Z,29.17
2018-10-11T18:02:50.542Z,26.90
2018-10-11T18:05:56.581Z,23.33
2018-10-11T18:09:01.620Z,22.00
2018-10-11T18:12:06.970Z,24.67
2018-10-11T18:15:12.887Z,33.70
2018-10-11T18:18:17.893Z,31.10
2018-10-11T18:21:22.885Z,24.60
2018-10-11T18:24:27.911Z,19.20
2018-10-11T18:27:33.908Z,17.60
2018-10-11T18:30:39.108Z,32.30
2018-10-11T18:33:45.390Z,29.33
2018-10-11T18:36:50.479Z,30.60
2018-10-11T18:39:56.278Z,32.87
2018-10-11T18:43:01.929Z,27.47
2018-10-11T18:46:07.145Z,23.27
2018-10-11T18:49:12.270Z,21.60
2018-10-11T18:52:18.195Z,19.87
2018-10-11T18:55:24.161Z,21.47
2018-10-11T18:58:29.388Z,20.33
2018-10-11T19:01:35.910Z,22.70
2018-10-11T19:04:41.224Z,21.80
2018-10-11T19:07:47.050Z,22.57
2018-10-11T19:10:52.643Z,55.43
2018-10-11T19:13:58.346Z,37.77
2018-10-11T19:17:04.222Z,19.07
2018-10-11T19:20:09.272Z,18.50
2018-10-11T19:23:15.119Z,21.00
2018-10-11T19:26:20.981Z,20.50
2018-10-11T19:29:26.016Z,20.07
2018-10-11T19:32:31.018Z,19.37
2018-10-11T19:35:36.015Z,21.30
2018-10-11T19:38:41.022Z,18.17
2018-10-11T19:41:46.105Z,18.47
2018-10-11T19:44:52.084Z,18.33
2018-10-11T19:47:57.083Z,19.53
2018-10-11T19:51:03.234Z,19.43
2018-10-11T19:54:08.967Z,20.07
2018-10-11T19:57:15.298Z,19.67
2018-10-11T20:00:22.337Z,17.07
2018-10-11T20:03:28.102Z,17.83
2018-10-11T20:06:33.970Z,17.30
2018-10-11T20:09:39.014Z,23.60
2018-10-11T20:12:44.729Z,20.37
2018-10-11T20:15:50.481Z,20.00
2018-10-11T20:18:56.390Z,18.47
2018-10-11T20:22:03.254Z,23.67
2018-10-11T20:25:09.048Z,19.10
2018-10-11T20:28:14.005Z,19.57
2018-10-11T20:31:19.081Z,20.37
2018-10-11T20:34:25.126Z,17.73
2018-10-11T20:37:30.116Z,19.90
2018-10-11T20:40:36.273Z,19.43
2018-10-11T20:43:42.270Z,17.93
2018-10-11T20:46:47.257Z,21.57
2018-10-11T20:49:53.075Z,17.73
2018-10-11T20:52:59.193Z,18.40
2018-10-11T20:56:04.989Z,19.07
2018-10-11T20:59:10.000Z,18.53
2018-10-11T21:02:15.717Z,19.30
2018-10-11T21:05:21.501Z,19.10
2018-10-11T21:08:27.229Z,19.77
2018-10-11T21:15:10.934Z,20.73
2018-10-11T21:18:15.909Z,19.87
2018-10-11T21:21:22.681Z,18.93
2018-10-11T21:24:28.469Z,19.67
2018-10-11T21:27:33.474Z,17.73
2018-10-11T21:30:38.523Z,19.13
2018-10-11T21:33:44.739Z,21.03
2018-10-11T21:36:50.525Z,20.83
2018-10-11T21:39:56.150Z,29.17
2018-10-11T21:43:01.345Z,18.60
2018-10-11T21:46:07.210Z,17.00
2018-10-11T21:49:12.222Z,17.30
2018-10-11T21:52:18.046Z,17.53
2018-10-11T21:55:24.082Z,19.60
2018-10-11T21:58:29.101Z,18.43
2018-10-11T22:01:34.781Z,18.27
2018-10-11T22:04:40.082Z,19.23
2018-10-11T22:07:45.106Z,17.40
2018-10-11T22:10:50.955Z,17.77
2018-10-11T22:13:55.975Z,17.73
2018-10-11T22:17:02.239Z,16.53
2018-10-11T22:20:07.298Z,21.27
2018-10-11T22:23:12.314Z,18.27
2018-10-11T22:26:18.169Z,17.93
2018-10-11T22:29:23.561Z,18.47
2018-10-11T22:32:29.243Z,19.73
2018-10-11T22:35:35.089Z,17.10
2018-10-11T22:38:41.456Z,20.60
2018-10-11T22:41:46.467Z,16.60
2018-10-11T22:44:51.543Z,19.33
2018-10-11T22:47:57.327Z,22.07
2018-10-11T22:51:02.370Z,20.00
2018-10-11T22:54:08.009Z,16.53
2018-10-11T22:57:12.980Z,35.93
2018-10-11T23:00:18.949Z,26.53
2018-10-11T23:03:23.941Z,31.57
2018-10-11T23:06:30.290Z,39.20
2018-10-11T23:09:35.281Z,20.37
2018-10-11T23:12:40.244Z,19.13
2018-10-11T23:15:46.026Z,19.77
2018-10-11T23:18:51.038Z,17.90
2018-10-11T23:21:56.857Z,16.70
2018-10-11T23:25:01.848Z,17.47
2018-10-11T23:28:07.612Z,17.50
2018-10-11T23:31:12.569Z,19.33
2018-10-11T23:34:17.537Z,19.43
2018-10-11T23:37:22.485Z,20.53
2018-10-11T23:40:28.264Z,18.83
2018-10-11T23:43:33.262Z,16.80
2018-10-11T23:46:38.396Z,17.20
2018-10-11T23:49:44.389Z,15.93
2018-10-11T23:52:50.041Z,17.37
2018-10-11T23:55:55.789Z,17.53
2018-10-11T23:59:01.752Z,16.33
